Airfield :
LOGIN :

Register | Disclaimer

   EN    FR    IT 

 










Legend :    VFR   Marginal VFR   IFR   Intensive IFR   Very Intensive IFR
Visi :
Ceiling :
>= 8 km
>= 3000ft
5 to 8 km
1000 to 3000 ft
1500m to 5 km
500 to 1000 ft
800 to 1500m
200 to 500 ft
< 800m
< 200 ft
Symbols :   Thunderstorms  Fog  Heavy snow  Heavy precipitations  Wind > 20 kt
SIGMETs :     Misc.  Thunderstorms  Icing  Turbulence  Mountain Waves  Volcanic Ashes






- Airport Elevation : 681 ft
- IATA code : LBA


EGNM - Leeds Bradford

CURRENT METAR :
  • 150850Z 25005KT 9999 FEW011 BKN033 10/08 Q1002

EXPIRED METARs :
  • 150820Z 28004KT 9999 FEW009 SCT031 09/08 Q1002
  • 150750Z 27005KT 240V310 9999 FEW010 SCT030 09/08 Q1002
  • 150720Z 27004KT 9999 FEW010 08/07 Q1002
  • 150650Z 30006KT 9999 FEW010 08/07 Q1001
  • 150620Z 31007KT 250V340 9999 SCT008 08/07 Q1000

TAF AMD TAF EGNM
Valid from the 15 at 06:00 until the 16 at 06:00 UTC


150559Z 1506/1606 02010KT 3000 -RA BR BKN004
BECMG 1506/1509 25006KT 9999 NSW FEW008 SCT025
TEMPO 1509/1512 8000 BKN008
PROB30
TEMPO 1603/1606 6000 RA BKN010
ATIS : +44 113 250 9696 (x2489)



MET'MAP, your aeronautical weather chart ! - Copyright ORBIFLY December 2007 - Disclaimer

ORBIFLY MET'MAP TEAM :

Programming & Development : Alexandra Zaïnal
Concept & Development : Baudouin d'Aumeries
Co-Development & Prog : Marc-Olivier Méhu
Technical & hardware support : Manuel Goepfert

Contact : metmap@orbifly.com




SOURCES & CREDITS :

   NOAA